sensor_id;sensor_type;location;lat;lon;timestamp;P1;durP1;ratioP1;P2;durP2;ratioP2
72920;SDS011;61064;51.654;5.476;2023-04-12T00:01:48;8.48;;;1.10;;
72920;SDS011;61064;51.654;5.476;2023-04-12T00:04:14;9.30;;;1.13;;
72920;SDS011;61064;51.654;5.476;2023-04-12T00:06:40;9.27;;;1.23;;
72920;SDS011;61064;51.654;5.476;2023-04-12T00:09:06;6.30;;;0.95;;
72920;SDS011;61064;51.654;5.476;2023-04-12T00:11:32;5.83;;;1.10;;
72920;SDS011;61064;51.654;5.476;2023-04-12T00:13:59;6.55;;;1.20;;
72920;SDS011;61064;51.654;5.476;2023-04-12T00:16:24;9.50;;;1.00;;
72920;SDS011;61064;51.654;5.476;2023-04-12T00:18:50;5.90;;;1.00;;
72920;SDS011;61064;51.654;5.476;2023-04-12T00:21:15;5.97;;;0.90;;
72920;SDS011;61064;51.654;5.476;2023-04-12T00:23:47;6.07;;;0.80;;
72920;SDS011;61064;51.654;5.476;2023-04-12T00:26:13;6.57;;;0.80;;
72920;SDS011;61064;51.654;5.476;2023-04-12T00:28:40;6.50;;;1.20;;
72920;SDS011;61064;51.654;5.476;2023-04-12T00:31:06;4.05;;;0.80;;
72920;SDS011;61064;51.654;5.476;2023-04-12T00:33:32;4.20;;;0.70;;
72920;SDS011;61064;51.654;5.476;2023-04-12T00:35:58;6.10;;;0.75;;
72920;SDS011;61064;51.654;5.476;2023-04-12T00:38:23;7.40;;;0.90;;
72920;SDS011;61064;51.654;5.476;2023-04-12T00:40:49;5.40;;;0.80;;
72920;SDS011;61064;51.654;5.476;2023-04-12T00:43:14;5.63;;;0.90;;
72920;SDS011;61064;51.654;5.476;2023-04-12T00:45:42;6.90;;;1.07;;
72920;SDS011;61064;51.654;5.476;2023-04-12T00:48:11;9.15;;;1.20;;
72920;SDS011;61064;51.654;5.476;2023-04-12T00:50:37;5.80;;;0.90;;
72920;SDS011;61064;51.654;5.476;2023-04-12T00:53:08;6.32;;;0.85;;
72920;SDS011;61064;51.654;5.476;2023-04-12T00:55:37;7.35;;;0.93;;
72920;SDS011;61064;51.654;5.476;2023-04-12T00:58:03;7.22;;;1.08;;
72920;SDS011;61064;51.654;5.476;2023-04-12T01:00:29;6.70;;;1.00;;
72920;SDS011;61064;51.654;5.476;2023-04-12T01:02:55;6.10;;;0.98;;
72920;SDS011;61064;51.654;5.476;2023-04-12T01:05:21;5.73;;;0.77;;
72920;SDS011;61064;51.654;5.476;2023-04-12T01:10:47;5.93;;;0.80;;
72920;SDS011;61064;51.654;5.476;2023-04-12T01:13:27;7.15;;;1.10;;
72920;SDS011;61064;51.654;5.476;2023-04-12T01:16:03;7.97;;;0.97;;
72920;SDS011;61064;51.654;5.476;2023-04-12T01:18:35;5.60;;;1.00;;
72920;SDS011;61064;51.654;5.476;2023-04-12T01:21:13;6.20;;;1.00;;
72920;SDS011;61064;51.654;5.476;2023-04-12T01:23:47;6.55;;;1.00;;
72920;SDS011;61064;51.654;5.476;2023-04-12T01:29:09;6.03;;;1.40;;
72920;SDS011;61064;51.654;5.476;2023-04-12T01:31:38;7.57;;;1.20;;
72920;SDS011;61064;51.654;5.476;2023-04-12T01:34:05;7.88;;;1.10;;
72920;SDS011;61064;51.654;5.476;2023-04-12T01:36:35;9.20;;;1.23;;
72920;SDS011;61064;51.654;5.476;2023-04-12T01:39:02;6.55;;;1.00;;
72920;SDS011;61064;51.654;5.476;2023-04-12T01:41:29;5.80;;;1.00;;
72920;SDS011;61064;51.654;5.476;2023-04-12T01:43:56;5.10;;;1.00;;
72920;SDS011;61064;51.654;5.476;2023-04-12T01:46:21;7.67;;;1.33;;
72920;SDS011;61064;51.654;5.476;2023-04-12T01:48:48;4.90;;;1.08;;
72920;SDS011;61064;51.654;5.476;2023-04-12T01:54:17;6.03;;;1.05;;
72920;SDS011;61064;51.654;5.476;2023-04-12T01:56:47;5.60;;;1.00;;
72920;SDS011;61064;51.654;5.476;2023-04-12T01:59:17;5.07;;;0.90;;
72920;SDS011;61064;51.654;5.476;2023-04-12T02:01:43;10.00;;;1.38;;
72920;SDS011;61064;51.654;5.476;2023-04-12T02:04:10;5.47;;;1.10;;
72920;SDS011;61064;51.654;5.476;2023-04-12T02:06:36;6.87;;;1.00;;
72920;SDS011;61064;51.654;5.476;2023-04-12T02:09:03;6.30;;;0.98;;
72920;SDS011;61064;51.654;5.476;2023-04-12T02:11:31;5.78;;;1.00;;
72920;SDS011;61064;51.654;5.476;2023-04-12T02:13:57;8.00;;;1.23;;
72920;SDS011;61064;51.654;5.476;2023-04-12T02:16:22;11.33;;;1.20;;
72920;SDS011;61064;51.654;5.476;2023-04-12T02:18:48;6.82;;;1.10;;
72920;SDS011;61064;51.654;5.476;2023-04-12T02:21:14;6.73;;;1.23;;
72920;SDS011;61064;51.654;5.476;2023-04-12T02:23:40;6.20;;;0.90;;
72920;SDS011;61064;51.654;5.476;2023-04-12T02:26:08;9.45;;;1.20;;
72920;SDS011;61064;51.654;5.476;2023-04-12T02:28:36;5.67;;;0.83;;
72920;SDS011;61064;51.654;5.476;2023-04-12T02:31:03;5.90;;;0.98;;
72920;SDS011;61064;51.654;5.476;2023-04-12T02:33:29;5.97;;;0.88;;
72920;SDS011;61064;51.654;5.476;2023-04-12T02:35:55;7.77;;;0.90;;
72920;SDS011;61064;51.654;5.476;2023-04-12T02:38:21;6.30;;;0.90;;
72920;SDS011;61064;51.654;5.476;2023-04-12T02:40:47;5.03;;;0.90;;
72920;SDS011;61064;51.654;5.476;2023-04-12T02:43:12;7.47;;;1.87;;
72920;SDS011;61064;51.654;5.476;2023-04-12T02:45:38;5.87;;;0.90;;
72920;SDS011;61064;51.654;5.476;2023-04-12T02:48:03;5.47;;;0.70;;
72920;SDS011;61064;51.654;5.476;2023-04-12T02:50:29;4.78;;;0.70;;
72920;SDS011;61064;51.654;5.476;2023-04-12T02:52:55;6.88;;;0.90;;
72920;SDS011;61064;51.654;5.476;2023-04-12T02:55:20;6.70;;;0.90;;
72920;SDS011;61064;51.654;5.476;2023-04-12T02:57:46;4.97;;;0.80;;
72920;SDS011;61064;51.654;5.476;2023-04-12T03:00:12;6.30;;;0.70;;
72920;SDS011;61064;51.654;5.476;2023-04-12T03:02:42;6.30;;;1.20;;
72920;SDS011;61064;51.654;5.476;2023-04-12T03:05:08;7.80;;;0.70;;
72920;SDS011;61064;51.654;5.476;2023-04-12T03:07:34;6.32;;;0.70;;
72920;SDS011;61064;51.654;5.476;2023-04-12T03:10:02;6.47;;;0.60;;
72920;SDS011;61064;51.654;5.476;2023-04-12T03:12:31;4.07;;;1.00;;
72920;SDS011;61064;51.654;5.476;2023-04-12T03:14:56;5.40;;;0.77;;
72920;SDS011;61064;51.654;5.476;2023-04-12T03:17:22;4.57;;;0.70;;
72920;SDS011;61064;51.654;5.476;2023-04-12T03:19:48;6.57;;;0.75;;
72920;SDS011;61064;51.654;5.476;2023-04-12T03:22:16;3.03;;;0.55;;
72920;SDS011;61064;51.654;5.476;2023-04-12T03:24:41;4.83;;;0.60;;
72920;SDS011;61064;51.654;5.476;2023-04-12T03:27:08;4.07;;;0.73;;
72920;SDS011;61064;51.654;5.476;2023-04-12T03:29:34;7.60;;;1.10;;
72920;SDS011;61064;51.654;5.476;2023-04-12T03:31:59;3.20;;;0.57;;
72920;SDS011;61064;51.654;5.476;2023-04-12T03:34:25;5.70;;;0.67;;
72920;SDS011;61064;51.654;5.476;2023-04-12T03:36:56;3.72;;;0.70;;
72920;SDS011;61064;51.654;5.476;2023-04-12T03:39:22;5.83;;;0.93;;
72920;SDS011;61064;51.654;5.476;2023-04-12T03:41:47;4.37;;;0.80;;
72920;SDS011;61064;51.654;5.476;2023-04-12T03:44:13;5.25;;;0.80;;
72920;SDS011;61064;51.654;5.476;2023-04-12T03:46:39;5.45;;;0.70;;
72920;SDS011;61064;51.654;5.476;2023-04-12T03:49:07;6.20;;;0.60;;
72920;SDS011;61064;51.654;5.476;2023-04-12T03:51:33;4.20;;;0.60;;
72920;SDS011;61064;51.654;5.476;2023-04-12T03:53:58;5.17;;;0.80;;
72920;SDS011;61064;51.654;5.476;2023-04-12T03:56:23;5.13;;;0.73;;
72920;SDS011;61064;51.654;5.476;2023-04-12T03:58:49;5.27;;;0.60;;
72920;SDS011;61064;51.654;5.476;2023-04-12T04:01:14;3.37;;;0.60;;
72920;SDS011;61064;51.654;5.476;2023-04-12T04:03:44;4.00;;;0.60;;
72920;SDS011;61064;51.654;5.476;2023-04-12T04:06:10;4.67;;;0.80;;
72920;SDS011;61064;51.654;5.476;2023-04-12T04:08:35;3.63;;;0.60;;
72920;SDS011;61064;51.654;5.476;2023-04-12T04:11:02;4.60;;;0.60;;
72920;SDS011;61064;51.654;5.476;2023-04-12T04:13:27;5.67;;;0.73;;
72920;SDS011;61064;51.654;5.476;2023-04-12T04:16:01;4.27;;;0.83;;
72920;SDS011;61064;51.654;5.476;2023-04-12T04:18:28;4.40;;;0.70;;
72920;SDS011;61064;51.654;5.476;2023-04-12T04:20:53;4.63;;;0.90;;
72920;SDS011;61064;51.654;5.476;2023-04-12T04:23:19;5.05;;;0.70;;
72920;SDS011;61064;51.654;5.476;2023-04-12T04:25:46;4.93;;;0.80;;
72920;SDS011;61064;51.654;5.476;2023-04-12T04:28:11;3.47;;;0.70;;
72920;SDS011;61064;51.654;5.476;2023-04-12T04:30:36;3.80;;;0.70;;
72920;SDS011;61064;51.654;5.476;2023-04-12T04:33:05;5.38;;;0.90;;
72920;SDS011;61064;51.654;5.476;2023-04-12T04:35:31;3.90;;;0.75;;
72920;SDS011;61064;51.654;5.476;2023-04-12T04:37:57;4.47;;;0.80;;
72920;SDS011;61064;51.654;5.476;2023-04-12T04:40:22;4.43;;;0.70;;
72920;SDS011;61064;51.654;5.476;2023-04-12T04:42:49;3.67;;;0.63;;
72920;SDS011;61064;51.654;5.476;2023-04-12T04:45:24;3.95;;;0.70;;
72920;SDS011;61064;51.654;5.476;2023-04-12T04:47:51;4.00;;;0.60;;
72920;SDS011;61064;51.654;5.476;2023-04-12T04:50:20;3.70;;;0.70;;
72920;SDS011;61064;51.654;5.476;2023-04-12T04:52:47;5.22;;;0.90;;
72920;SDS011;61064;51.654;5.476;2023-04-12T04:55:12;4.60;;;0.70;;
72920;SDS011;61064;51.654;5.476;2023-04-12T04:57:39;4.45;;;0.80;;
72920;SDS011;61064;51.654;5.476;2023-04-12T05:00:05;5.70;;;0.90;;
72920;SDS011;61064;51.654;5.476;2023-04-12T05:02:38;5.60;;;0.90;;
72920;SDS011;61064;51.654;5.476;2023-04-12T05:05:07;6.03;;;1.30;;
72920;SDS011;61064;51.654;5.476;2023-04-12T05:07:33;4.30;;;1.10;;
72920;SDS011;61064;51.654;5.476;2023-04-12T05:10:00;4.47;;;0.90;;
72920;SDS011;61064;51.654;5.476;2023-04-12T05:12:26;3.93;;;0.70;;
72920;SDS011;61064;51.654;5.476;2023-04-12T05:14:51;5.53;;;1.10;;
72920;SDS011;61064;51.654;5.476;2023-04-12T05:17:16;4.17;;;0.90;;
72920;SDS011;61064;51.654;5.476;2023-04-12T05:19:42;6.53;;;1.10;;
72920;SDS011;61064;51.654;5.476;2023-04-12T05:22:08;6.35;;;0.90;;
72920;SDS011;61064;51.654;5.476;2023-04-12T05:24:34;4.35;;;1.00;;
72920;SDS011;61064;51.654;5.476;2023-04-12T05:27:00;5.97;;;1.00;;
72920;SDS011;61064;51.654;5.476;2023-04-12T05:29:25;5.33;;;0.90;;
72920;SDS011;61064;51.654;5.476;2023-04-12T05:31:51;4.53;;;1.00;;
72920;SDS011;61064;51.654;5.476;2023-04-12T05:34:16;5.80;;;0.87;;
72920;SDS011;61064;51.654;5.476;2023-04-12T05:36:42;6.53;;;1.00;;
72920;SDS011;61064;51.654;5.476;2023-04-12T05:39:07;4.13;;;0.90;;
72920;SDS011;61064;51.654;5.476;2023-04-12T05:41:32;5.40;;;0.87;;
72920;SDS011;61064;51.654;5.476;2023-04-12T05:43:57;4.70;;;1.07;;
72920;SDS011;61064;51.654;5.476;2023-04-12T05:46:23;5.80;;;1.10;;
72920;SDS011;61064;51.654;5.476;2023-04-12T05:48:48;6.00;;;1.03;;
72920;SDS011;61064;51.654;5.476;2023-04-12T05:51:15;3.90;;;1.00;;
72920;SDS011;61064;51.654;5.476;2023-04-12T05:53:40;6.40;;;1.20;;
72920;SDS011;61064;51.654;5.476;2023-04-12T05:56:06;5.97;;;1.20;;
72920;SDS011;61064;51.654;5.476;2023-04-12T05:58:31;5.30;;;1.07;;
72920;SDS011;61064;51.654;5.476;2023-04-12T06:00:58;5.70;;;1.00;;
72920;SDS011;61064;51.654;5.476;2023-04-12T06:03:23;6.30;;;1.10;;
72920;SDS011;61064;51.654;5.476;2023-04-12T06:05:49;5.75;;;1.20;;
72920;SDS011;61064;51.654;5.476;2023-04-12T06:08:15;5.55;;;1.00;;
72920;SDS011;61064;51.654;5.476;2023-04-12T06:10:40;5.07;;;1.10;;
72920;SDS011;61064;51.654;5.476;2023-04-12T06:13:06;4.80;;;1.10;;
72920;SDS011;61064;51.654;5.476;2023-04-12T06:15:32;5.13;;;1.23;;
72920;SDS011;61064;51.654;5.476;2023-04-12T06:17:57;5.03;;;1.13;;
72920;SDS011;61064;51.654;5.476;2023-04-12T06:20:24;4.80;;;1.20;;
72920;SDS011;61064;51.654;5.476;2023-04-12T06:22:49;4.67;;;1.10;;
72920;SDS011;61064;51.654;5.476;2023-04-12T06:25:15;6.43;;;1.40;;
72920;SDS011;61064;51.654;5.476;2023-04-12T06:27:40;6.38;;;1.83;;
72920;SDS011;61064;51.654;5.476;2023-04-12T06:30:06;6.17;;;1.27;;
72920;SDS011;61064;51.654;5.476;2023-04-12T06:32:32;4.85;;;1.20;;
72920;SDS011;61064;51.654;5.476;2023-04-12T06:34:58;5.33;;;1.30;;
72920;SDS011;61064;51.654;5.476;2023-04-12T06:37:23;4.70;;;1.30;;
72920;SDS011;61064;51.654;5.476;2023-04-12T06:39:48;4.47;;;1.20;;
72920;SDS011;61064;51.654;5.476;2023-04-12T06:42:14;4.13;;;0.80;;
72920;SDS011;61064;51.654;5.476;2023-04-12T06:44:39;6.07;;;1.20;;
72920;SDS011;61064;51.654;5.476;2023-04-12T06:47:05;5.60;;;1.40;;
72920;SDS011;61064;51.654;5.476;2023-04-12T06:49:30;6.10;;;1.40;;
72920;SDS011;61064;51.654;5.476;2023-04-12T06:51:56;5.70;;;1.50;;
72920;SDS011;61064;51.654;5.476;2023-04-12T06:54:21;5.10;;;1.40;;
72920;SDS011;61064;51.654;5.476;2023-04-12T06:56:48;4.67;;;1.40;;
72920;SDS011;61064;51.654;5.476;2023-04-12T06:59:13;7.35;;;1.85;;
72920;SDS011;61064;51.654;5.476;2023-04-12T07:01:38;5.40;;;1.70;;
72920;SDS011;61064;51.654;5.476;2023-04-12T07:04:04;6.43;;;2.07;;
72920;SDS011;61064;51.654;5.476;2023-04-12T07:06:29;6.13;;;2.17;;
72920;SDS011;61064;51.654;5.476;2023-04-12T07:08:55;6.97;;;2.40;;
72920;SDS011;61064;51.654;5.476;2023-04-12T07:11:20;6.77;;;2.20;;
72920;SDS011;61064;51.654;5.476;2023-04-12T07:13:49;5.95;;;2.00;;
72920;SDS011;61064;51.654;5.476;2023-04-12T07:16:15;7.03;;;2.28;;
72920;SDS011;61064;51.654;5.476;2023-04-12T07:18:41;6.87;;;1.87;;
72920;SDS011;61064;51.654;5.476;2023-04-12T07:21:07;6.97;;;2.00;;
72920;SDS011;61064;51.654;5.476;2023-04-12T07:23:32;6.03;;;1.97;;
72920;SDS011;61064;51.654;5.476;2023-04-12T07:25:58;6.43;;;2.27;;
72920;SDS011;61064;51.654;5.476;2023-04-12T07:28:24;6.57;;;1.98;;
72920;SDS011;61064;51.654;5.476;2023-04-12T07:30:50;8.13;;;2.33;;
72920;SDS011;61064;51.654;5.476;2023-04-12T07:33:15;7.87;;;1.90;;
72920;SDS011;61064;51.654;5.476;2023-04-12T07:35:40;8.93;;;1.92;;
72920;SDS011;61064;51.654;5.476;2023-04-12T07:38:06;6.90;;;1.87;;
72920;SDS011;61064;51.654;5.476;2023-04-12T07:40:31;7.70;;;2.10;;
72920;SDS011;61064;51.654;5.476;2023-04-12T07:42:57;6.03;;;1.73;;
72920;SDS011;61064;51.654;5.476;2023-04-12T07:45:22;9.97;;;2.00;;
72920;SDS011;61064;51.654;5.476;2023-04-12T07:47:48;9.27;;;1.98;;
72920;SDS011;61064;51.654;5.476;2023-04-12T07:50:13;8.80;;;2.07;;
72920;SDS011;61064;51.654;5.476;2023-04-12T07:52:38;7.23;;;2.10;;
72920;SDS011;61064;51.654;5.476;2023-04-12T07:55:04;10.45;;;2.50;;
72920;SDS011;61064;51.654;5.476;2023-04-12T07:57:30;6.77;;;2.20;;
72920;SDS011;61064;51.654;5.476;2023-04-12T07:59:55;7.13;;;2.23;;
72920;SDS011;61064;51.654;5.476;2023-04-12T08:02:21;9.30;;;1.88;;
72920;SDS011;61064;51.654;5.476;2023-04-12T08:04:50;8.88;;;2.20;;
72920;SDS011;61064;51.654;5.476;2023-04-12T08:07:16;10.53;;;2.07;;
72920;SDS011;61064;51.654;5.476;2023-04-12T08:09:41;7.05;;;2.00;;
72920;SDS011;61064;51.654;5.476;2023-04-12T08:12:07;9.97;;;1.90;;
72920;SDS011;61064;51.654;5.476;2023-04-12T08:14:32;9.87;;;2.00;;
72920;SDS011;61064;51.654;5.476;2023-04-12T08:16:58;9.33;;;1.60;;
72920;SDS011;61064;51.654;5.476;2023-04-12T08:19:23;10.97;;;1.80;;
72920;SDS011;61064;51.654;5.476;2023-04-12T08:21:49;7.43;;;1.58;;
72920;SDS011;61064;51.654;5.476;2023-04-12T08:24:15;10.90;;;2.35;;
72920;SDS011;61064;51.654;5.476;2023-04-12T08:26:40;9.07;;;1.77;;
72920;SDS011;61064;51.654;5.476;2023-04-12T08:29:06;11.27;;;1.97;;
72920;SDS011;61064;51.654;5.476;2023-04-12T08:31:32;7.97;;;1.70;;
72920;SDS011;61064;51.654;5.476;2023-04-12T08:33:57;8.95;;;1.85;;
72920;SDS011;61064;51.654;5.476;2023-04-12T08:36:24;8.75;;;1.75;;
72920;SDS011;61064;51.654;5.476;2023-04-12T08:38:50;7.75;;;1.50;;
72920;SDS011;61064;51.654;5.476;2023-04-12T08:41:17;6.65;;;1.83;;
72920;SDS011;61064;51.654;5.476;2023-04-12T08:43:43;11.57;;;1.93;;
72920;SDS011;61064;51.654;5.476;2023-04-12T08:46:10;10.95;;;1.63;;
72920;SDS011;61064;51.654;5.476;2023-04-12T08:48:39;9.68;;;1.77;;
72920;SDS011;61064;51.654;5.476;2023-04-12T08:51:06;6.80;;;1.40;;
72920;SDS011;61064;51.654;5.476;2023-04-12T08:53:32;12.13;;;2.10;;
72920;SDS011;61064;51.654;5.476;2023-04-12T08:55:57;10.87;;;2.07;;
72920;SDS011;61064;51.654;5.476;2023-04-12T08:58:23;10.10;;;1.90;;
72920;SDS011;61064;51.654;5.476;2023-04-12T09:00:48;9.25;;;2.35;;
72920;SDS011;61064;51.654;5.476;2023-04-12T09:03:14;7.72;;;2.10;;
72920;SDS011;61064;51.654;5.476;2023-04-12T09:05:40;11.23;;;2.00;;
72920;SDS011;61064;51.654;5.476;2023-04-12T09:08:05;9.50;;;2.20;;
72920;SDS011;61064;51.654;5.476;2023-04-12T09:10:32;9.75;;;1.83;;
72920;SDS011;61064;51.654;5.476;2023-04-12T09:13:00;13.50;;;1.60;;
72920;SDS011;61064;51.654;5.476;2023-04-12T09:15:27;11.68;;;2.20;;
72920;SDS011;61064;51.654;5.476;2023-04-12T09:20:33;13.25;;;2.00;;
72920;SDS011;61064;51.654;5.476;2023-04-12T09:22:59;15.65;;;2.05;;
72920;SDS011;61064;51.654;5.476;2023-04-12T09:25:37;14.50;;;2.07;;
72920;SDS011;61064;51.654;5.476;2023-04-12T09:28:05;16.15;;;2.70;;
72920;SDS011;61064;51.654;5.476;2023-04-12T09:30:43;11.27;;;1.83;;
72920;SDS011;61064;51.654;5.476;2023-04-12T09:33:11;13.73;;;2.23;;
72920;SDS011;61064;51.654;5.476;2023-04-12T09:35:37;14.13;;;2.20;;
72920;SDS011;61064;51.654;5.476;2023-04-12T09:38:06;13.73;;;2.30;;
72920;SDS011;61064;51.654;5.476;2023-04-12T09:40:32;14.55;;;2.72;;
72920;SDS011;61064;51.654;5.476;2023-04-12T09:43:00;11.95;;;2.53;;
72920;SDS011;61064;51.654;5.476;2023-04-12T09:45:26;11.77;;;2.60;;
72920;SDS011;61064;51.654;5.476;2023-04-12T09:47:52;17.20;;;2.50;;
72920;SDS011;61064;51.654;5.476;2023-04-12T09:50:19;15.83;;;2.40;;
72920;SDS011;61064;51.654;5.476;2023-04-12T09:52:46;20.65;;;2.75;;
72920;SDS011;61064;51.654;5.476;2023-04-12T09:55:12;13.05;;;2.45;;
72920;SDS011;61064;51.654;5.476;2023-04-12T09:57:41;12.77;;;2.70;;
72920;SDS011;61064;51.654;5.476;2023-04-12T10:00:08;13.90;;;2.75;;
72920;SDS011;61064;51.654;5.476;2023-04-12T10:02:39;15.63;;;2.40;;
72920;SDS011;61064;51.654;5.476;2023-04-12T10:05:06;17.73;;;2.67;;
72920;SDS011;61064;51.654;5.476;2023-04-12T10:07:35;13.70;;;2.10;;
72920;SDS011;61064;51.654;5.476;2023-04-12T10:10:01;13.57;;;2.22;;
72920;SDS011;61064;51.654;5.476;2023-04-12T10:12:28;12.63;;;2.92;;
72920;SDS011;61064;51.654;5.476;2023-04-12T10:14:54;19.23;;;2.78;;
72920;SDS011;61064;51.654;5.476;2023-04-12T10:17:19;13.70;;;2.47;;
72920;SDS011;61064;51.654;5.476;2023-04-12T10:19:50;16.27;;;2.70;;
72920;SDS011;61064;51.654;5.476;2023-04-12T10:22:16;14.98;;;2.75;;
72920;SDS011;61064;51.654;5.476;2023-04-12T10:24:41;16.20;;;2.30;;
72920;SDS011;61064;51.654;5.476;2023-04-12T10:27:07;14.57;;;2.40;;
72920;SDS011;61064;51.654;5.476;2023-04-12T10:29:34;16.85;;;2.60;;
72920;SDS011;61064;51.654;5.476;2023-04-12T10:32:18;17.07;;;3.23;;
72920;SDS011;61064;51.654;5.476;2023-04-12T10:34:54;12.85;;;2.53;;
72920;SDS011;61064;51.654;5.476;2023-04-12T10:37:21;19.60;;;3.15;;
72920;SDS011;61064;51.654;5.476;2023-04-12T10:40:26;13.77;;;2.63;;
72920;SDS011;61064;51.654;5.476;2023-04-12T10:45:42;16.43;;;2.40;;
72920;SDS011;61064;51.654;5.476;2023-04-12T10:48:27;12.10;;;2.00;;
72920;SDS011;61064;51.654;5.476;2023-04-12T10:56:40;13.45;;;1.60;;
72920;SDS011;61064;51.654;5.476;2023-04-12T10:59:07;10.13;;;1.42;;
72920;SDS011;61064;51.654;5.476;2023-04-12T11:01:34;15.07;;;1.60;;
72920;SDS011;61064;51.654;5.476;2023-04-12T11:04:06;14.55;;;2.03;;
72920;SDS011;61064;51.654;5.476;2023-04-12T11:09:17;11.70;;;1.40;;
72920;SDS011;61064;51.654;5.476;2023-04-12T11:11:42;17.38;;;1.60;;
72920;SDS011;61064;51.654;5.476;2023-04-12T11:14:08;11.20;;;1.30;;
72920;SDS011;61064;51.654;5.476;2023-04-12T11:19:32;12.65;;;1.33;;
72920;SDS011;61064;51.654;5.476;2023-04-12T11:22:02;13.02;;;1.40;;
72920;SDS011;61064;51.654;5.476;2023-04-12T11:24:29;14.03;;;1.50;;
72920;SDS011;61064;51.654;5.476;2023-04-12T11:26:55;12.18;;;1.20;;
72920;SDS011;61064;51.654;5.476;2023-04-12T11:29:25;15.07;;;1.70;;
72920;SDS011;61064;51.654;5.476;2023-04-12T11:31:51;14.15;;;2.40;;
72920;SDS011;61064;51.654;5.476;2023-04-12T11:34:17;10.90;;;1.42;;
72920;SDS011;61064;51.654;5.476;2023-04-12T11:36:52;13.83;;;1.70;;
72920;SDS011;61064;51.654;5.476;2023-04-12T11:39:19;13.98;;;1.70;;
72920;SDS011;61064;51.654;5.476;2023-04-12T11:41:45;11.52;;;1.63;;
72920;SDS011;61064;51.654;5.476;2023-04-12T11:44:11;11.60;;;1.20;;
72920;SDS011;61064;51.654;5.476;2023-04-12T11:46:38;11.43;;;1.58;;
72920;SDS011;61064;51.654;5.476;2023-04-12T11:49:03;11.93;;;1.27;;
72920;SDS011;61064;51.654;5.476;2023-04-12T11:51:29;13.30;;;1.60;;
72920;SDS011;61064;51.654;5.476;2023-04-12T11:53:56;10.13;;;1.42;;
72920;SDS011;61064;51.654;5.476;2023-04-12T11:56:22;12.63;;;2.00;;
72920;SDS011;61064;51.654;5.476;2023-04-12T11:58:51;14.55;;;3.13;;
72920;SDS011;61064;51.654;5.476;2023-04-12T12:01:17;13.80;;;2.40;;
72920;SDS011;61064;51.654;5.476;2023-04-12T12:03:44;14.20;;;1.65;;
72920;SDS011;61064;51.654;5.476;2023-04-12T12:06:12;13.50;;;2.60;;
72920;SDS011;61064;51.654;5.476;2023-04-12T12:08:38;13.25;;;1.40;;
72920;SDS011;61064;51.654;5.476;2023-04-12T12:11:04;9.48;;;1.20;;
72920;SDS011;61064;51.654;5.476;2023-04-12T12:13:43;11.37;;;1.00;;
72920;SDS011;61064;51.654;5.476;2023-04-12T12:16:10;13.20;;;1.08;;
72920;SDS011;61064;51.654;5.476;2023-04-12T12:18:40;8.15;;;0.90;;
72920;SDS011;61064;51.654;5.476;2023-04-12T12:21:10;9.52;;;1.00;;
72920;SDS011;61064;51.654;5.476;2023-04-12T12:23:37;8.25;;;0.75;;
72920;SDS011;61064;51.654;5.476;2023-04-12T12:26:03;8.07;;;0.60;;
72920;SDS011;61064;51.654;5.476;2023-04-12T12:28:30;5.28;;;0.57;;
72920;SDS011;61064;51.654;5.476;2023-04-12T12:31:00;8.33;;;0.83;;
72920;SDS011;61064;51.654;5.476;2023-04-12T12:33:37;5.32;;;0.57;;
72920;SDS011;61064;51.654;5.476;2023-04-12T12:36:03;9.65;;;0.90;;
72920;SDS011;61064;51.654;5.476;2023-04-12T12:38:35;6.43;;;0.47;;
72920;SDS011;61064;51.654;5.476;2023-04-12T12:43:43;10.00;;;0.90;;
72920;SDS011;61064;51.654;5.476;2023-04-12T12:46:09;11.10;;;1.10;;
72920;SDS011;61064;51.654;5.476;2023-04-12T12:48:39;6.80;;;1.27;;
72920;SDS011;61064;51.654;5.476;2023-04-12T12:51:05;9.63;;;1.13;;
72920;SDS011;61064;51.654;5.476;2023-04-12T12:53:31;10.73;;;1.40;;
72920;SDS011;61064;51.654;5.476;2023-04-12T12:55:57;10.00;;;1.30;;
72920;SDS011;61064;51.654;5.476;2023-04-12T12:58:22;6.80;;;0.93;;
72920;SDS011;61064;51.654;5.476;2023-04-12T13:00:47;7.40;;;1.03;;
72920;SDS011;61064;51.654;5.476;2023-04-12T13:03:13;7.20;;;0.80;;
72920;SDS011;61064;51.654;5.476;2023-04-12T13:05:38;6.73;;;1.00;;
72920;SDS011;61064;51.654;5.476;2023-04-12T13:08:03;5.80;;;0.87;;
72920;SDS011;61064;51.654;5.476;2023-04-12T13:10:30;7.97;;;0.90;;
72920;SDS011;61064;51.654;5.476;2023-04-12T13:12:55;7.57;;;1.00;;
72920;SDS011;61064;51.654;5.476;2023-04-12T13:15:21;7.87;;;1.10;;
72920;SDS011;61064;51.654;5.476;2023-04-12T13:17:47;8.35;;;1.20;;
72920;SDS011;61064;51.654;5.476;2023-04-12T13:20:12;8.60;;;1.07;;
72920;SDS011;61064;51.654;5.476;2023-04-12T13:22:37;8.27;;;1.33;;
72920;SDS011;61064;51.654;5.476;2023-04-12T13:25:03;7.67;;;1.13;;
72920;SDS011;61064;51.654;5.476;2023-04-12T13:27:28;8.05;;;1.10;;
72920;SDS011;61064;51.654;5.476;2023-04-12T13:29:54;6.90;;;0.93;;
72920;SDS011;61064;51.654;5.476;2023-04-12T13:32:19;7.83;;;0.80;;
72920;SDS011;61064;51.654;5.476;2023-04-12T13:34:44;7.17;;;0.80;;
72920;SDS011;61064;51.654;5.476;2023-04-12T13:37:10;7.40;;;0.95;;
72920;SDS011;61064;51.654;5.476;2023-04-12T13:39:35;6.97;;;1.10;;
72920;SDS011;61064;51.654;5.476;2023-04-12T13:42:01;8.77;;;1.00;;
72920;SDS011;61064;51.654;5.476;2023-04-12T13:44:27;6.87;;;1.00;;
72920;SDS011;61064;51.654;5.476;2023-04-12T13:46:52;5.17;;;1.07;;
72920;SDS011;61064;51.654;5.476;2023-04-12T13:49:18;7.32;;;1.10;;
72920;SDS011;61064;51.654;5.476;2023-04-12T13:51:44;7.53;;;0.80;;
72920;SDS011;61064;51.654;5.476;2023-04-12T13:54:09;6.00;;;0.80;;
72920;SDS011;61064;51.654;5.476;2023-04-12T13:56:34;7.70;;;0.83;;
72920;SDS011;61064;51.654;5.476;2023-04-12T13:59:00;9.40;;;1.00;;
72920;SDS011;61064;51.654;5.476;2023-04-12T14:01:26;6.90;;;0.90;;
72920;SDS011;61064;51.654;5.476;2023-04-12T14:03:51;6.00;;;0.60;;
72920;SDS011;61064;51.654;5.476;2023-04-12T14:06:20;5.88;;;0.63;;
72920;SDS011;61064;51.654;5.476;2023-04-12T14:08:46;5.17;;;0.70;;
72920;SDS011;61064;51.654;5.476;2023-04-12T14:11:12;6.87;;;1.33;;
72920;SDS011;61064;51.654;5.476;2023-04-12T14:13:37;5.18;;;0.75;;
72920;SDS011;61064;51.654;5.476;2023-04-12T14:16:03;4.97;;;0.70;;
72920;SDS011;61064;51.654;5.476;2023-04-12T14:18:29;3.85;;;0.60;;
72920;SDS011;61064;51.654;5.476;2023-04-12T14:20:54;2.10;;;0.33;;
72920;SDS011;61064;51.654;5.476;2023-04-12T14:23:21;3.17;;;0.50;;
72920;SDS011;61064;51.654;5.476;2023-04-12T14:25:49;6.97;;;0.80;;
72920;SDS011;61064;51.654;5.476;2023-04-12T14:28:15;3.43;;;0.70;;
72920;SDS011;61064;51.654;5.476;2023-04-12T14:30:44;6.30;;;0.60;;
72920;SDS011;61064;51.654;5.476;2023-04-12T14:33:10;4.85;;;0.60;;
72920;SDS011;61064;51.654;5.476;2023-04-12T14:35:36;4.88;;;0.55;;
72920;SDS011;61064;51.654;5.476;2023-04-12T14:38:02;5.30;;;0.60;;
72920;SDS011;61064;51.654;5.476;2023-04-12T14:40:28;6.80;;;0.80;;
72920;SDS011;61064;51.654;5.476;2023-04-12T14:42:54;5.50;;;0.60;;
72920;SDS011;61064;51.654;5.476;2023-04-12T14:45:20;5.40;;;0.53;;
72920;SDS011;61064;51.654;5.476;2023-04-12T14:47:45;4.33;;;0.40;;
72920;SDS011;61064;51.654;5.476;2023-04-12T14:50:10;2.00;;;0.40;;
72920;SDS011;61064;51.654;5.476;2023-04-12T14:52:36;2.50;;;0.30;;
72920;SDS011;61064;51.654;5.476;2023-04-12T14:55:01;5.43;;;1.00;;
72920;SDS011;61064;51.654;5.476;2023-04-12T14:57:27;5.53;;;1.10;;
72920;SDS011;61064;51.654;5.476;2023-04-12T14:59:53;6.83;;;1.10;;
72920;SDS011;61064;51.654;5.476;2023-04-12T15:02:18;8.27;;;2.70;;
72920;SDS011;61064;51.654;5.476;2023-04-12T15:04:46;6.33;;;1.30;;
72920;SDS011;61064;51.654;5.476;2023-04-12T15:07:14;5.43;;;1.10;;
72920;SDS011;61064;51.654;5.476;2023-04-12T15:09:40;4.00;;;0.80;;
72920;SDS011;61064;51.654;5.476;2023-04-12T15:12:08;4.90;;;0.52;;